This is the latest recevied weather packets stored in our database for station/object KE9DBJ. If no packets are shown the sender has not sent any weather packets the latest 10 day(s).
| Time | Temp. | Humidity | Pressure | Rain* | Wind** | Luminosity | Snow |
|---|---|---|---|---|---|---|---|
| 1776977417 | 28.33° C | 33% | 1012.1 hPa | 0 mm | - | - | - |
| 1776975630 | 29.44° C | 32% | 1012.4 hPa | 0 mm | - | - | - |
| 1776969023 | 30° C | 34% | 1014 hPa | 0 mm | - | - | - |
| 1776966047 | 28.33° C | 36% | 1014.7 hPa | 0 mm | - | - | - |
| 1776960016 | 27.78° C | 37% | 1016 hPa | 0 mm | - | - | - |
| 1776955232 | 25° C | 51% | 1016.3 hPa | 0 mm | - | - | - |
| 1776952852 | 20.56° C | 60% | 1016.8 hPa | 0 mm | - | - | - |
| 1776952218 | 19.44° C | 66% | 1016.8 hPa | 0 mm | - | - | - |
| 1776950431 | 15° C | 84% | 1016.8 hPa | 0 mm | - | - | - |
| 1776947416 | 11.67° C | 94% | 1016.8 hPa | 0 mm | - | - | - |
| 1776941423 | 8.89° C | 99% | 1016.2 hPa | 0 mm | - | - | - |
| 1776938427 | 9.44° C | 99% | 1016 hPa | 0 mm | - | - | - |
| 1776935418 | 9.44° C | 99% | 1016 hPa | 0 mm | - | - | - |
| 1776934817 | 10° C | 99% | 1016 hPa | 0 mm | - | - | - |
| 1776933626 | 10° C | 98% | 1016 hPa | 0 mm | - | - | - |
| 1776931820 | 10.56° C | 97% | 1015.9 hPa | 0 mm | - | - | - |
| 1776929440 | 10.56° C | 96% | 1015.9 hPa | 0 mm | - | - | - |
| 1776924638 | 11.11° C | 91% | 1016.2 hPa | 0 mm | - | - | - |
| 1776923427 | 11.67° C | 91% | 1016.2 hPa | 0 mm | - | - | - |
| 1776920430 | 12.22° C | 90% | 1016.1 hPa | 0 mm | - | - | - |
| 1776912018 | 14.44° C | 70% | 1016 hPa | 0 mm | - | - | - |
| 1776908426 | 17.22° C | 56% | 1015.4 hPa | 0 mm | - | - | - |
* Rain latest hour (hover to see other rain measurements)
** Current wind speed in m/s (hover to see current wind gust speed)